createdAt,value
2023-02-14T00:01:51.508Z,86.92
2023-02-14T00:04:20.010Z,87.05
2023-02-14T00:06:49.609Z,86.74
2023-02-14T00:09:19.764Z,87.06
2023-02-14T00:11:48.407Z,87.09
2023-02-14T00:14:35.693Z,86.81
2023-02-14T00:17:04.316Z,86.87
2023-02-14T00:19:35.075Z,87.13
2023-02-14T00:22:04.789Z,87.15
2023-02-14T00:24:33.503Z,87.10
2023-02-14T00:27:01.967Z,87.22
2023-02-14T00:29:32.379Z,86.94
2023-02-14T00:32:01.540Z,87.18
2023-02-14T00:34:30.015Z,87.20
2023-02-14T00:36:59.212Z,87.32
2023-02-14T00:39:27.502Z,87.18
2023-02-14T00:41:55.827Z,86.90
2023-02-14T00:44:25.190Z,87.20
2023-02-14T00:46:53.562Z,87.05
2023-02-14T00:49:25.231Z,87.33
2023-02-14T00:51:53.908Z,87.26
2023-02-14T00:54:22.304Z,87.45
2023-02-14T00:56:50.952Z,87.45
2023-02-14T00:59:19.214Z,87.51
2023-02-14T01:01:47.940Z,87.66
2023-02-14T01:04:16.297Z,87.59
2023-02-14T01:06:44.836Z,87.09
2023-02-14T01:09:14.879Z,87.38
2023-02-14T01:11:43.331Z,87.58
2023-02-14T01:14:11.845Z,87.72
2023-02-14T01:16:40.265Z,87.74
2023-02-14T01:19:09.498Z,87.50
2023-02-14T01:21:37.958Z,87.35
2023-02-14T01:24:08.151Z,87.59
2023-02-14T01:26:36.856Z,87.84
2023-02-14T01:29:05.836Z,87.66
2023-02-14T01:31:35.751Z,87.91
2023-02-14T01:34:05.123Z,88.04
2023-02-14T01:36:38.242Z,88.03
2023-02-14T01:39:13.981Z,88.39
2023-02-14T01:41:44.300Z,87.97
2023-02-14T01:44:15.595Z,87.73
2023-02-14T01:46:45.692Z,88.14
2023-02-14T01:49:20.693Z,88.04
2023-02-14T01:52:07.727Z,87.75
2023-02-14T01:54:39.775Z,87.54
2023-02-14T01:57:12.675Z,87.46
2023-02-14T01:59:49.790Z,88.20
2023-02-14T02:02:23.966Z,88.17
2023-02-14T02:04:56.057Z,88.15
2023-02-14T02:07:28.081Z,88.67
2023-02-14T02:10:02.957Z,87.96
2023-02-14T02:12:32.392Z,88.48
2023-02-14T02:15:01.725Z,88.19
2023-02-14T02:17:51.821Z,88.47
2023-02-14T02:20:32.898Z,88.02
2023-02-14T02:23:16.465Z,88.17
2023-02-14T02:26:02.858Z,88.71
2023-02-14T02:29:15.807Z,88.22
2023-02-14T02:32:17.736Z,88.39
2023-02-14T02:35:09.793Z,88.88
2023-02-14T02:38:21.790Z,88.61
2023-02-14T02:41:02.096Z,88.48
2023-02-14T02:43:34.420Z,88.68
2023-02-14T02:46:27.212Z,88.28
2023-02-14T02:49:48.392Z,88.28
2023-02-14T02:52:59.494Z,88.70
2023-02-14T02:55:56.926Z,88.68
2023-02-14T02:58:32.726Z,89.33
2023-02-14T03:01:06.003Z,89.03
2023-02-14T03:03:54.490Z,89.07
2023-02-14T03:06:22.849Z,89.32
2023-02-14T03:08:51.163Z,89.20
2023-02-14T03:11:19.854Z,89.16
2023-02-14T03:14:20.789Z,88.56
2023-02-14T03:17:29.672Z,88.91
2023-02-14T03:20:16.456Z,88.49
2023-02-14T03:23:04.994Z,89.29
2023-02-14T03:25:36.332Z,89.38
2023-02-14T03:28:22.518Z,89.80
2023-02-14T03:31:13.766Z,90.13
2023-02-14T03:34:19.837Z,90.12
2023-02-14T03:37:04.897Z,89.73
2023-02-14T03:39:45.904Z,89.59
2023-02-14T03:42:28.719Z,90.57
2023-02-14T03:45:01.469Z,90.12
2023-02-14T03:47:34.506Z,90.20
2023-02-14T03:50:09.570Z,90.09
2023-02-14T03:52:40.378Z,89.78
2023-02-14T03:55:10.225Z,90.10
2023-02-14T03:57:59.733Z,90.09
2023-02-14T04:00:30.814Z,89.94
2023-02-14T04:03:06.182Z,89.80
2023-02-14T04:05:34.773Z,90.65
2023-02-14T04:08:03.064Z,90.60
2023-02-14T04:10:32.480Z,90.20
2023-02-14T04:13:00.824Z,90.20
2023-02-14T04:15:29.675Z,90.31
2023-02-14T04:18:16.517Z,90.50
2023-02-14T04:20:44.824Z,90.65
2023-02-14T04:23:13.576Z,90.07
2023-02-14T04:25:43.322Z,90.38
2023-02-14T04:28:12.853Z,90.20
2023-02-14T04:30:41.464Z,90.25
2023-02-14T04:33:10.875Z,90.36
2023-02-14T04:35:39.400Z,90.59
2023-02-14T04:38:07.859Z,90.36
2023-02-14T04:40:36.311Z,89.95
2023-02-14T04:43:04.826Z,90.32
2023-02-14T04:45:33.839Z,90.88
2023-02-14T04:48:02.647Z,90.76
2023-02-14T04:50:31.124Z,91.29
2023-02-14T04:52:59.543Z,90.52
2023-02-14T04:55:28.219Z,90.98
2023-02-14T04:57:57.141Z,90.93
2023-02-14T05:00:25.643Z,90.86
2023-02-14T05:02:54.228Z,91.02
2023-02-14T05:05:22.718Z,91.09
2023-02-14T05:07:51.351Z,91.67
2023-02-14T05:10:19.659Z,91.32
2023-02-14T05:12:48.310Z,91.56
2023-02-14T05:15:17.066Z,91.93
2023-02-14T05:17:45.664Z,90.79
2023-02-14T05:20:14.093Z,91.95
2023-02-14T05:22:42.516Z,92.03
2023-02-14T05:25:11.027Z,91.85
2023-02-14T05:27:39.498Z,92.09
2023-02-14T05:30:09.533Z,91.52
2023-02-14T05:32:37.865Z,91.90
2023-02-14T05:35:06.589Z,92.77
2023-02-14T05:37:35.085Z,92.48
2023-02-14T05:40:03.612Z,91.99
2023-02-14T05:42:32.039Z,92.03
2023-02-14T05:45:00.621Z,92.24
2023-02-14T05:47:29.339Z,91.81
2023-02-14T05:49:57.642Z,92.47
2023-02-14T05:52:26.057Z,91.96
2023-02-14T05:54:54.658Z,92.10
2023-02-14T05:57:23.503Z,92.72
2023-02-14T05:59:52.284Z,92.71
2023-02-14T06:02:20.910Z,92.87
2023-02-14T06:04:49.422Z,92.33
2023-02-14T06:07:18.317Z,92.07
2023-02-14T06:09:47.137Z,92.67
2023-02-14T06:12:15.508Z,92.71
2023-02-14T06:14:45.256Z,92.80
2023-02-14T06:17:14.419Z,92.57
2023-02-14T06:19:43.568Z,93.28
2023-02-14T06:22:12.012Z,93.20
2023-02-14T06:24:40.398Z,93.69
2023-02-14T06:27:08.925Z,92.62
2023-02-14T06:29:37.266Z,93.03
2023-02-14T06:32:07.220Z,93.33
2023-02-14T06:34:35.850Z,93.28
2023-02-14T06:37:04.286Z,93.36
2023-02-14T06:39:33.347Z,92.76
2023-02-14T06:42:01.787Z,93.29
2023-02-14T06:44:30.339Z,93.61
2023-02-14T06:46:58.905Z,93.82
2023-02-14T06:49:27.387Z,93.48
2023-02-14T06:51:55.993Z,94.13
2023-02-14T06:54:24.675Z,93.69
2023-02-14T06:56:53.095Z,93.74
2023-02-14T06:59:21.701Z,93.93
2023-02-14T07:01:50.427Z,93.82
2023-02-14T07:04:18.956Z,93.63
2023-02-14T07:06:47.227Z,93.52
2023-02-14T07:09:17.923Z,93.69
2023-02-14T07:11:46.737Z,93.79
2023-02-14T07:14:15.005Z,93.76
2023-02-14T07:16:44.216Z,94.23
2023-02-14T07:19:12.477Z,94.57
2023-02-14T07:21:40.947Z,94.62
2023-02-14T07:24:09.399Z,94.52
2023-02-14T07:26:37.770Z,94.72
2023-02-14T07:29:06.356Z,94.70
2023-02-14T07:31:35.041Z,94.75
2023-02-14T07:34:03.578Z,94.87
2023-02-14T07:36:31.912Z,94.69
2023-02-14T07:39:00.429Z,94.65
2023-02-14T07:41:28.818Z,94.93
2023-02-14T07:43:58.184Z,94.86
2023-02-14T07:46:26.504Z,94.89
2023-02-14T07:48:55.808Z,95.15
2023-02-14T07:51:24.087Z,94.80
2023-02-14T07:53:52.274Z,94.63
2023-02-14T07:56:20.635Z,94.86
2023-02-14T07:58:49.973Z,94.95
2023-02-14T08:01:18.690Z,94.67
2023-02-14T08:03:49.710Z,94.63
2023-02-14T08:06:19.656Z,94.41
2023-02-14T08:08:48.524Z,94.17
2023-02-14T08:11:36.678Z,94.10
2023-02-14T08:14:05.568Z,93.53
2023-02-14T08:16:34.912Z,93.99
2023-02-14T08:19:04.647Z,93.89
2023-02-14T08:21:33.683Z,94.00
2023-02-14T08:24:02.291Z,93.47
2023-02-14T08:26:31.992Z,93.64
2023-02-14T08:29:02.077Z,93.70
2023-02-14T08:31:36.600Z,93.68
2023-02-14T08:34:05.782Z,93.77
2023-02-14T08:36:35.228Z,93.24
2023-02-14T08:39:05.249Z,93.07
2023-02-14T08:41:34.763Z,93.14
2023-02-14T08:44:03.825Z,92.80
2023-02-14T08:46:32.513Z,92.79
2023-02-14T08:49:00.951Z,93.03
2023-02-14T08:51:29.741Z,92.83
2023-02-14T08:53:57.956Z,92.72
2023-02-14T08:56:26.178Z,92.93
2023-02-14T08:58:54.959Z,92.78
2023-02-14T09:01:23.313Z,92.19
2023-02-14T09:03:51.554Z,91.62
2023-02-14T09:06:20.266Z,91.43
2023-02-14T09:08:48.450Z,92.05
2023-02-14T09:11:19.900Z,91.93
2023-02-14T09:13:48.861Z,92.20
2023-02-14T09:16:18.363Z,91.45
2023-02-14T09:18:48.311Z,91.61
2023-02-14T09:21:19.660Z,91.30
2023-02-14T09:23:48.066Z,91.16
2023-02-14T09:26:18.728Z,90.86
2023-02-14T09:28:47.636Z,90.75
2023-02-14T09:31:22.054Z,90.81
2023-02-14T09:34:09.609Z,90.90
2023-02-14T09:36:37.923Z,91.78
2023-02-14T09:39:06.143Z,90.93
2023-02-14T09:41:48.803Z,91.52
2023-02-14T09:44:33.411Z,91.75
2023-02-14T09:47:27.102Z,91.40
2023-02-14T09:49:55.946Z,91.78
2023-02-14T09:52:30.165Z,91.55
2023-02-14T09:55:01.814Z,91.54
2023-02-14T09:57:42.050Z,91.47
2023-02-14T10:00:34.026Z,91.63
2023-02-14T10:03:15.120Z,91.54
2023-02-14T10:06:10.489Z,91.12
2023-02-14T10:08:56.198Z,91.13
2023-02-14T10:11:27.318Z,91.31
2023-02-14T10:14:04.298Z,90.89
2023-02-14T10:16:40.398Z,90.03
2023-02-14T10:19:21.980Z,89.82
2023-02-14T10:22:15.411Z,90.39
2023-02-14T10:24:52.151Z,89.82
2023-02-14T10:27:42.535Z,89.92
2023-02-14T10:30:23.934Z,89.98
2023-02-14T10:33:16.339Z,89.49
2023-02-14T10:35:49.740Z,89.46
2023-02-14T10:38:47.814Z,89.41
2023-02-14T10:41:19.107Z,89.40
2023-02-14T10:43:50.065Z,89.19
2023-02-14T10:46:41.106Z,88.62
2023-02-14T10:49:33.330Z,88.69
2023-02-14T10:52:13.721Z,88.98
2023-02-14T10:54:44.902Z,88.36
2023-02-14T10:57:20.101Z,87.45
2023-02-14T10:59:59.388Z,87.07
2023-02-14T11:02:42.874Z,86.13
2023-02-14T11:05:27.146Z,85.81
2023-02-14T11:07:56.627Z,86.16
2023-02-14T11:10:34.232Z,85.29
2023-02-14T11:13:02.528Z,83.17
2023-02-14T11:15:39.339Z,83.35
2023-02-14T11:18:21.450Z,81.49
2023-02-14T11:21:03.246Z,81.00
2023-02-14T11:23:40.396Z,79.48
2023-02-14T11:26:17.981Z,76.32
2023-02-14T11:28:56.281Z,73.04
2023-02-14T11:31:29.173Z,69.83
2023-02-14T11:33:58.985Z,69.19
2023-02-14T11:36:28.075Z,69.94
2023-02-14T11:39:25.918Z,68.81
2023-02-14T11:41:57.411Z,67.63
2023-02-14T11:44:29.069Z,64.94
2023-02-14T11:47:17.172Z,64.49
2023-02-14T11:50:07.415Z,62.55
2023-02-14T11:52:51.624Z,63.16
2023-02-14T11:55:34.425Z,62.20
2023-02-14T11:58:05.703Z,59.46
2023-02-14T12:00:35.319Z,58.22
2023-02-14T12:03:06.585Z,59.08
2023-02-14T12:05:45.118Z,60.20
2023-02-14T12:08:13.750Z,56.61
2023-02-14T12:10:45.556Z,55.32
2023-02-14T12:13:13.762Z,56.30
2023-02-14T12:15:44.763Z,56.26
2023-02-14T12:18:49.158Z,55.40
2023-02-14T12:21:38.690Z,55.60
2023-02-14T12:24:31.935Z,56.12
2023-02-14T12:27:21.791Z,54.50
2023-02-14T12:30:00.094Z,52.24
2023-02-14T12:32:31.718Z,50.95
2023-02-14T12:35:17.773Z,52.52
2023-02-14T12:38:18.692Z,52.63
2023-02-14T12:41:05.856Z,53.03
2023-02-14T12:43:50.818Z,52.10
2023-02-14T12:46:54.544Z,50.94
2023-02-14T12:49:49.659Z,51.50
2023-02-14T12:52:39.684Z,51.26
2023-02-14T12:55:32.790Z,49.68
2023-02-14T12:58:16.534Z,48.01
2023-02-14T13:01:05.759Z,49.63
2023-02-14T13:03:52.679Z,49.18
2023-02-14T13:06:37.153Z,48.31
2023-02-14T13:09:23.469Z,47.84
2023-02-14T13:12:03.959Z,47.92
2023-02-14T13:15:04.823Z,46.50
2023-02-14T13:17:46.674Z,44.85
2023-02-14T13:20:29.650Z,44.55
2023-02-14T13:23:05.360Z,44.15
2023-02-14T13:25:41.073Z,43.50
2023-02-14T13:28:14.117Z,43.97
2023-02-14T13:30:43.442Z,42.57
2023-02-14T13:33:36.681Z,42.51
2023-02-14T13:36:11.244Z,41.77
2023-02-14T13:38:50.449Z,41.64
2023-02-14T13:41:21.706Z,40.64
2023-02-14T13:43:53.048Z,38.59
2023-02-14T13:46:22.728Z,40.77
2023-02-14T13:49:07.706Z,40.83
2023-02-14T13:51:49.341Z,41.36
2023-02-14T13:54:30.306Z,41.47
2023-02-14T13:57:23.050Z,40.38
2023-02-14T14:00:16.594Z,40.64
2023-02-14T14:02:47.527Z,39.08
2023-02-14T14:05:35.711Z,36.56
2023-02-14T14:08:43.768Z,38.90
2023-02-14T14:11:13.916Z,39.07
2023-02-14T14:13:42.281Z,40.18
2023-02-14T14:16:24.240Z,40.42
2023-02-14T14:19:15.342Z,39.76
2023-02-14T14:21:59.258Z,39.92
2023-02-14T14:24:39.737Z,39.54
2023-02-14T14:27:18.038Z,40.49
2023-02-14T14:29:59.705Z,41.98
2023-02-14T14:32:34.409Z,42.72
2023-02-14T14:35:24.713Z,42.36
2023-02-14T14:37:58.508Z,44.12
2023-02-14T14:40:33.869Z,45.83
2023-02-14T14:43:14.237Z,47.63
2023-02-14T14:45:46.698Z,48.02
2023-02-14T14:48:42.547Z,49.56
2023-02-14T14:51:37.356Z,51.37
2023-02-14T14:54:20.155Z,52.73
2023-02-14T14:56:59.425Z,54.12
2023-02-14T14:59:37.577Z,54.77
2023-02-14T15:02:27.320Z,55.17
2023-02-14T15:04:55.618Z,55.90
2023-02-14T15:07:33.215Z,56.19
2023-02-14T15:10:01.481Z,56.77
2023-02-14T15:12:48.836Z,56.69
2023-02-14T15:15:18.524Z,57.19
2023-02-14T15:17:47.369Z,57.91
2023-02-14T15:20:18.863Z,59.26
2023-02-14T15:22:50.009Z,60.48
2023-02-14T15:25:32.168Z,61.73
2023-02-14T15:28:01.205Z,63.36
2023-02-14T15:30:34.302Z,64.27
2023-02-14T15:33:04.560Z,65.16
2023-02-14T15:35:36.599Z,66.02
2023-02-14T15:38:07.243Z,67.17
2023-02-14T15:40:35.990Z,68.47
2023-02-14T15:43:13.353Z,69.10
2023-02-14T15:45:42.896Z,69.88
2023-02-14T15:48:19.864Z,70.74
2023-02-14T15:50:53.076Z,71.24
2023-02-14T15:53:33.259Z,72.05
2023-02-14T15:56:37.291Z,72.68
2023-02-14T15:59:18.184Z,73.53
2023-02-14T16:02:27.884Z,74.44
2023-02-14T16:05:23.285Z,75.34
2023-02-14T16:07:57.592Z,75.53
2023-02-14T16:10:31.227Z,75.82
2023-02-14T16:13:04.693Z,75.94
2023-02-14T16:15:42.790Z,76.30
2023-02-14T16:18:20.076Z,76.93
2023-02-14T16:20:51.363Z,77.18
2023-02-14T16:23:29.029Z,77.48
2023-02-14T16:25:59.891Z,77.75
2023-02-14T16:28:30.684Z,78.18
2023-02-14T16:31:01.300Z,78.09
2023-02-14T16:33:35.861Z,78.26
2023-02-14T16:36:18.571Z,78.69
2023-02-14T16:38:47.586Z,79.15
2023-02-14T16:41:19.206Z,79.20
2023-02-14T16:43:48.906Z,79.36
2023-02-14T16:46:21.756Z,79.57
2023-02-14T16:48:52.666Z,79.63
2023-02-14T16:51:23.949Z,79.45
2023-02-14T16:53:53.980Z,79.74
2023-02-14T16:56:44.046Z,79.97
2023-02-14T16:59:13.112Z,80.46
2023-02-14T17:01:42.079Z,80.37
2023-02-14T17:04:11.287Z,80.68
2023-02-14T17:06:47.184Z,80.75
2023-02-14T17:09:20.192Z,80.55
2023-02-14T17:11:52.114Z,80.58
2023-02-14T17:14:25.027Z,80.55
2023-02-14T17:16:55.382Z,80.73
2023-02-14T17:19:23.686Z,80.81
2023-02-14T17:21:52.329Z,80.80
2023-02-14T17:24:20.453Z,80.64
2023-02-14T17:26:48.665Z,80.89
2023-02-14T17:29:17.010Z,81.35
2023-02-14T17:31:45.397Z,81.15
2023-02-14T17:34:13.650Z,81.42
2023-02-14T17:36:43.021Z,81.17
2023-02-14T17:39:11.713Z,81.28
2023-02-14T17:41:40.373Z,81.58
2023-02-14T17:44:09.620Z,81.57
2023-02-14T17:46:38.032Z,81.69
2023-02-14T17:49:06.913Z,81.60
2023-02-14T17:51:35.535Z,81.43
2023-02-14T17:54:04.900Z,81.22
2023-02-14T17:56:33.876Z,81.67
2023-02-14T17:59:02.250Z,81.34
2023-02-14T18:01:36.408Z,81.83
2023-02-14T18:04:06.264Z,81.62
2023-02-14T18:06:34.646Z,81.63
2023-02-14T18:09:06.320Z,81.51
2023-02-14T18:11:34.707Z,81.80
2023-02-14T18:14:04.684Z,81.67
2023-02-14T18:16:33.348Z,81.86
2023-02-14T18:19:03.552Z,81.90
2023-02-14T18:21:34.738Z,81.50
2023-02-14T18:24:04.087Z,81.74
2023-02-14T18:26:32.939Z,81.70
2023-02-14T18:29:06.584Z,81.70
2023-02-14T18:31:37.946Z,81.97
2023-02-14T18:34:07.557Z,82.10
2023-02-14T18:36:37.829Z,82.12
2023-02-14T18:39:07.610Z,82.22
2023-02-14T18:41:36.089Z,82.59
2023-02-14T18:44:05.048Z,82.78
2023-02-14T18:46:35.759Z,82.62
2023-02-14T18:49:07.240Z,82.52
2023-02-14T18:51:39.440Z,82.79
2023-02-14T18:54:07.915Z,82.85
2023-02-14T18:56:38.781Z,82.89
2023-02-14T18:59:09.974Z,82.79
2023-02-14T19:01:42.160Z,83.24
2023-02-14T19:04:12.430Z,83.19
2023-02-14T19:06:42.159Z,83.34
2023-02-14T19:09:13.120Z,83.25
2023-02-14T19:11:41.845Z,83.40
2023-02-14T19:14:11.222Z,83.68
2023-02-14T19:16:44.072Z,83.18
2023-02-14T19:19:12.551Z,83.32
2023-02-14T19:21:40.850Z,83.87
2023-02-14T19:24:09.439Z,83.42
2023-02-14T19:26:40.774Z,83.65
2023-02-14T19:29:14.536Z,83.41
2023-02-14T19:31:46.183Z,83.49
2023-02-14T19:34:29.222Z,83.45
2023-02-14T19:37:00.774Z,83.11
2023-02-14T19:39:30.211Z,83.25
2023-02-14T19:41:59.610Z,83.03
2023-02-14T19:44:29.558Z,83.12
2023-02-14T19:47:00.328Z,83.24
2023-02-14T19:49:29.448Z,83.26
2023-02-14T19:51:58.949Z,83.30
2023-02-14T19:54:27.309Z,83.56
2023-02-14T19:56:56.520Z,83.03
2023-02-14T19:59:24.914Z,83.26
2023-02-14T20:01:53.892Z,83.46
2023-02-14T20:04:28.484Z,83.47
2023-02-14T20:06:57.413Z,83.50
2023-02-14T20:09:26.191Z,83.26
2023-02-14T20:11:56.691Z,83.68
2023-02-14T20:14:43.673Z,83.64
2023-02-14T20:17:19.533Z,83.47
2023-02-14T20:19:48.114Z,84.01
2023-02-14T20:22:16.354Z,83.98
2023-02-14T20:24:44.774Z,83.91
2023-02-14T20:27:13.024Z,83.95
2023-02-14T20:29:45.665Z,83.73
2023-02-14T20:32:16.466Z,84.18
2023-02-14T20:34:45.367Z,84.18
2023-02-14T20:37:13.815Z,84.48
2023-02-14T20:39:42.011Z,84.31
2023-02-14T20:42:11.173Z,84.35
2023-02-14T20:44:39.543Z,84.69
2023-02-14T20:47:07.920Z,84.37
2023-02-14T20:49:36.184Z,84.35
2023-02-14T20:52:04.933Z,84.21
2023-02-14T20:54:33.361Z,83.80
2023-02-14T20:57:01.755Z,84.38
2023-02-14T20:59:30.073Z,84.02
2023-02-14T21:01:59.339Z,83.97
2023-02-14T21:04:28.699Z,84.39
2023-02-14T21:06:58.447Z,83.97
2023-02-14T21:09:27.235Z,83.83
2023-02-14T21:11:55.506Z,83.84
2023-02-14T21:14:24.078Z,83.87
2023-02-14T21:16:52.416Z,84.20
2023-02-14T21:19:20.829Z,83.80
2023-02-14T21:21:49.122Z,83.42
2023-02-14T21:24:17.381Z,83.81
2023-02-14T21:26:45.939Z,83.98
2023-02-14T21:29:14.374Z,84.02
2023-02-14T21:31:43.169Z,84.15
2023-02-14T21:34:13.891Z,83.99
2023-02-14T21:36:42.310Z,83.77
2023-02-14T21:39:10.631Z,83.28
2023-02-14T21:41:38.866Z,83.43
2023-02-14T21:44:07.208Z,83.56
2023-02-14T21:46:39.482Z,83.56
2023-02-14T21:49:26.426Z,83.29
2023-02-14T21:51:55.183Z,84.35
2023-02-14T21:54:23.376Z,83.41
2023-02-14T21:56:51.658Z,83.45
2023-02-14T21:59:20.055Z,83.85
2023-02-14T22:01:48.312Z,83.51
2023-02-14T22:04:16.599Z,83.81
2023-02-14T22:06:44.897Z,83.78
2023-02-14T22:09:14.772Z,83.35
2023-02-14T22:11:43.278Z,83.98
2023-02-14T22:14:14.221Z,83.94
2023-02-14T22:16:42.829Z,84.25
2023-02-14T22:19:15.164Z,84.35
2023-02-14T22:21:47.045Z,84.98
2023-02-14T22:24:19.485Z,84.60
2023-02-14T22:26:47.607Z,84.45
2023-02-14T22:29:15.827Z,84.77
2023-02-14T22:31:44.386Z,84.92
2023-02-14T22:34:14.999Z,84.37
2023-02-14T22:36:43.621Z,84.58
2023-02-14T22:39:16.464Z,84.82
2023-02-14T22:41:44.870Z,84.78
2023-02-14T22:44:13.655Z,84.83
2023-02-14T22:46:41.896Z,84.97
2023-02-14T22:49:10.203Z,84.84
2023-02-14T22:51:40.416Z,85.11
2023-02-14T22:54:13.480Z,85.19
2023-02-14T22:56:47.025Z,85.12
2023-02-14T22:59:24.074Z,85.23
2023-02-14T23:01:53.524Z,85.16
2023-02-14T23:04:24.638Z,85.02
2023-02-14T23:06:53.893Z,85.18
2023-02-14T23:09:23.574Z,84.73
2023-02-14T23:11:52.341Z,84.99
2023-02-14T23:14:39.120Z,84.85
2023-02-14T23:17:25.813Z,85.20
2023-02-14T23:20:12.550Z,84.80
2023-02-14T23:22:41.344Z,85.14
2023-02-14T23:25:11.710Z,85.50
2023-02-14T23:27:43.255Z,85.51
2023-02-14T23:30:19.539Z,85.82
2023-02-14T23:32:48.229Z,85.90
2023-02-14T23:35:16.390Z,85.59
2023-02-14T23:37:44.874Z,85.78
2023-02-14T23:40:13.156Z,85.86
2023-02-14T23:42:41.696Z,85.23
2023-02-14T23:45:28.626Z,85.16
2023-02-14T23:48:01.713Z,85.24
2023-02-14T23:50:30.147Z,85.35
2023-02-14T23:52:59.070Z,86.10
2023-02-14T23:55:27.258Z,85.46
2023-02-14T23:57:55.316Z,85.44
